Time;durP1;ratioP1;P1;durP2;ratioP2;P2;SDS_P1;SDS_P2;PMS_P1;PMS_P2;Temp;Humidity;BMP_temperature;BMP_pressure;BME280_temperature;BME280_humidity;BME280_pressure;Samples;Min_cycle;Max_cycle;Signal;HPM_P1;HPM_P2
2023/01/06 00:00:42;;;;;;;1.52;1.00;;;10.40;99.90;;;;;;5091602;28;20025;-68
2023/01/06 00:03:08;;;;;;;1.77;0.80;;;10.50;99.90;;;;;;5064261;28;20028;-66
2023/01/06 00:05:34;;;;;;;1.60;0.77;;;10.50;99.90;;;;;;5050938;28;20036;-67
2023/01/06 00:08:00;;;;;;;2.90;0.85;;;10.50;99.90;;;;;;5049814;28;20033;-67
2023/01/06 00:10:26;;;;;;;1.20;0.80;;;10.50;99.90;;;;;;5050809;28;20382;-67
2023/01/06 00:12:52;;;;;;;1.73;0.80;;;10.60;99.90;;;;;;5049948;28;20029;-68
2023/01/06 00:15:19;;;;;;;0.82;0.77;;;10.50;99.90;;;;;;5050912;28;20033;-66
2023/01/06 00:17:44;;;;;;;1.75;0.63;;;10.50;99.90;;;;;;5050523;28;20043;-69
2023/01/06 00:20:11;;;;;;;0.90;0.70;;;10.50;99.90;;;;;;5050414;28;20024;-67
2023/01/06 00:22:41;;;;;;;2.70;0.80;;;10.40;99.90;;;;;;5050682;28;20459;-67
2023/01/06 00:25:09;;;;;;;1.33;0.90;;;10.40;99.90;;;;;;5049364;28;20486;-68
2023/01/06 00:27:34;;;;;;;0.85;0.70;;;10.50;99.90;;;;;;5050862;28;20401;-68
2023/01/06 00:30:00;;;;;;;0.65;0.60;;;10.40;99.90;;;;;;5049643;28;20025;-66
2023/01/06 00:32:25;;;;;;;1.58;0.93;;;10.50;99.90;;;;;;5069290;28;20031;-67
2023/01/06 00:34:51;;;;;;;0.68;0.55;;;10.50;99.90;;;;;;5069713;28;20033;-68
2023/01/06 00:37:16;;;;;;;0.93;0.68;;;10.50;99.90;;;;;;5090842;28;20103;-67
2023/01/06 00:39:42;;;;;;;2.83;0.80;;;10.60;99.90;;;;;;5090545;28;20078;-67
2023/01/06 00:42:08;;;;;;;1.45;0.70;;;10.70;99.90;;;;;;5093374;28;20028;-67
2023/01/06 00:44:36;;;;;;;1.67;0.93;;;10.70;99.90;;;;;;5094070;28;20024;-67
2023/01/06 00:47:03;;;;;;;2.85;0.70;;;10.60;99.90;;;;;;5093959;28;20465;-68
2023/01/06 00:49:28;;;;;;;1.25;0.60;;;10.60;99.90;;;;;;5094161;28;20519;-67
2023/01/06 00:51:54;;;;;;;2.45;0.70;;;10.60;99.90;;;;;;5093848;28;20024;-68
2023/01/06 00:54:20;;;;;;;1.65;1.00;;;10.50;99.90;;;;;;5094012;28;20089;-68
2023/01/06 00:56:49;;;;;;;1.90;0.70;;;10.50;99.90;;;;;;5093723;28;20056;-68
2023/01/06 00:59:21;;;;;;;3.17;0.60;;;10.40;99.90;;;;;;5093730;28;20024;-66
2023/01/06 01:01:48;;;;;;;0.90;0.55;;;10.40;99.90;;;;;;5065096;28;20033;-67
2023/01/06 01:04:13;;;;;;;1.30;0.80;;;10.30;99.90;;;;;;5052927;28;20041;-67
2023/01/06 01:06:42;;;;;;;1.08;0.70;;;10.30;99.90;;;;;;5053930;28;20032;-67
2023/01/06 01:09:11;;;;;;;0.85;0.70;;;10.20;99.90;;;;;;5052795;28;20017;-67
2023/01/06 01:14:21;;;;;;;2.30;0.75;;;10.10;99.90;;;;;;5053444;28;20067;-67
2023/01/06 01:16:47;;;;;;;1.27;0.70;;;10.10;99.90;;;;;;5053044;28;20053;-68
2023/01/06 01:19:13;;;;;;;1.98;0.80;;;10.00;99.90;;;;;;5053069;28;20033;-67
2023/01/06 01:21:39;;;;;;;1.15;0.80;;;9.90;99.90;;;;;;5053809;28;20024;-67
2023/01/06 01:24:05;;;;;;;2.45;0.93;;;9.90;99.90;;;;;;5052139;28;20059;-67
2023/01/06 01:26:30;;;;;;;1.65;0.80;;;9.80;99.90;;;;;;5054006;28;20374;-68
2023/01/06 01:28:56;;;;;;;1.63;0.60;;;9.70;99.90;;;;;;5052181;28;20140;-67
2023/01/06 01:31:22;;;;;;;0.73;0.45;;;9.70;99.90;;;;;;5053585;28;20025;-66
2023/01/06 01:33:48;;;;;;;0.93;0.52;;;9.80;99.90;;;;;;5052567;28;20040;-68
2023/01/06 01:36:16;;;;;;;1.08;0.57;;;9.70;99.90;;;;;;5077047;28;20059;-66
2023/01/06 01:38:42;;;;;;;2.03;0.70;;;9.70;99.90;;;;;;5093426;28;20469;-67
2023/01/06 01:41:13;;;;;;;1.17;0.60;;;9.70;99.90;;;;;;5092878;28;20097;-68
2023/01/06 01:43:42;;;;;;;1.50;0.70;;;9.70;99.90;;;;;;5092996;28;20402;-68
2023/01/06 01:46:08;;;;;;;1.77;0.45;;;9.80;99.90;;;;;;5092999;28;20036;-66
2023/01/06 01:48:34;;;;;;;2.28;0.88;;;9.90;99.90;;;;;;5092712;28;20032;-68
2023/01/06 01:51:03;;;;;;;1.40;0.63;;;9.90;99.90;;;;;;5093055;28;20103;-67
2023/01/06 01:53:34;;;;;;;0.90;0.40;;;10.00;99.90;;;;;;5092533;28;20039;-68
2023/01/06 01:56:03;;;;;;;1.13;0.50;;;10.00;99.90;;;;;;5092594;28;20059;-68
2023/01/06 01:58:49;;;;;;;0.50;0.38;;;9.90;99.90;;;;;;5078223;28;20052;-66
2023/01/06 02:01:15;;;;;;;2.13;0.77;;;9.80;99.90;;;;;;5069669;28;20075;-67
2023/01/06 02:03:42;;;;;;;0.68;0.63;;;9.80;99.90;;;;;;5052371;28;20028;-67
2023/01/06 02:06:12;;;;;;;1.67;0.75;;;9.70;99.90;;;;;;5052229;28;20481;-68
2023/01/06 02:08:58;;;;;;;1.60;0.95;;;9.70;99.90;;;;;;5052178;28;20470;-68
2023/01/06 02:11:26;;;;;;;0.85;0.50;;;9.70;99.90;;;;;;5052884;28;20029;-68
2023/01/06 02:13:58;;;;;;;0.63;0.55;;;9.70;99.90;;;;;;5051456;28;20033;-67
2023/01/06 02:16:45;;;;;;;1.75;0.55;;;9.90;99.90;;;;;;5052898;28;20104;-69
2023/01/06 02:19:22;;;;;;;3.53;0.75;;;9.90;99.90;;;;;;5052153;28;20037;-68
2023/01/06 02:22:10;;;;;;;1.63;0.63;;;9.90;99.90;;;;;;5051966;28;20037;-68
2023/01/06 02:25:23;;;;;;;0.77;0.50;;;9.90;99.90;;;;;;5051655;28;20507;-67
2023/01/06 02:28:18;;;;;;;0.70;0.50;;;9.90;99.90;;;;;;4970196;28;20066;-67
2023/01/06 02:31:07;;;;;;;1.85;0.80;;;9.90;99.90;;;;;;4971258;28;20475;-66
2023/01/06 02:33:48;;;;;;;1.70;0.73;;;9.90;99.90;;;;;;4973056;28;20121;-67
2023/01/06 02:36:33;;;;;;;0.93;0.60;;;10.00;99.90;;;;;;4990747;28;20030;-68
2023/01/06 02:39:24;;;;;;;2.72;0.68;;;10.00;99.90;;;;;;4989258;28;20109;-67
2023/01/06 02:41:59;;;;;;;1.58;0.60;;;10.00;99.90;;;;;;4989727;28;20035;-68
2023/01/06 02:44:43;;;;;;;1.67;0.60;;;10.00;99.90;;;;;;4990059;28;20039;-67
2023/01/06 02:47:15;;;;;;;0.55;0.40;;;10.10;99.90;;;;;;4990156;28;20034;-67
2023/01/06 02:50:10;;;;;;;3.38;0.80;;;10.10;99.90;;;;;;4989057;28;20582;-67
2023/01/06 02:52:44;;;;;;;0.55;0.55;;;10.10;99.90;;;;;;4990177;28;20471;-67
2023/01/06 02:55:20;;;;;;;0.82;0.60;;;10.30;99.90;;;;;;4989520;28;20038;-67
2023/01/06 02:58:10;;;;;;;1.20;0.70;;;10.40;99.90;;;;;;5008313;28;20478;-67
2023/01/06 03:00:48;;;;;;;1.47;0.83;;;10.40;99.90;;;;;;5071695;28;20036;-67
2023/01/06 03:03:19;;;;;;;2.42;0.65;;;10.40;99.90;;;;;;5089877;28;20102;-67
2023/01/06 03:05:49;;;;;;;0.73;0.50;;;10.40;99.90;;;;;;5090777;28;20032;-68
2023/01/06 03:08:21;;;;;;;0.88;0.50;;;10.40;99.90;;;;;;5091663;28;20020;-67
2023/01/06 03:10:48;;;;;;;1.58;0.68;;;10.40;99.90;;;;;;5091316;28;20024;-67
2023/01/06 03:13:32;;;;;;;1.45;0.80;;;10.40;99.90;;;;;;5091540;28;20035;-67
2023/01/06 03:15:58;;;;;;;1.90;0.85;;;10.40;99.90;;;;;;5091121;28;20027;-67
2023/01/06 03:18:24;;;;;;;1.73;0.80;;;10.30;99.90;;;;;;5091120;28;20043;-67
2023/01/06 03:20:53;;;;;;;2.13;0.80;;;10.30;99.90;;;;;;5090872;28;20032;-68
2023/01/06 03:23:19;;;;;;;0.77;0.70;;;10.20;99.90;;;;;;5091127;28;20054;-67
2023/01/06 03:25:45;;;;;;;2.08;0.80;;;10.20;99.90;;;;;;5091313;28;20066;-68
2023/01/06 03:28:10;;;;;;;2.05;0.90;;;10.10;99.90;;;;;;5090883;28;20106;-67
2023/01/06 03:30:45;;;;;;;0.98;0.70;;;10.10;99.90;;;;;;5090624;28;20487;-67
2023/01/06 03:33:42;;;;;;;1.70;0.68;;;10.00;99.90;;;;;;5052835;28;20033;-66
2023/01/06 03:36:19;;;;;;;0.85;0.85;;;10.00;99.90;;;;;;5061200;28;20044;-66
2023/01/06 03:39:09;;;;;;;1.05;0.73;;;10.00;99.90;;;;;;5090788;28;20059;-68
2023/01/06 03:45:05;;;;;;;1.20;0.93;;;9.90;99.90;;;;;;5091049;28;20460;-67
2023/01/06 03:47:49;;;;;;;0.90;0.80;;;9.70;99.90;;;;;;5091341;28;20036;-67
2023/01/06 03:50:23;;;;;;;2.63;1.50;;;9.60;99.90;;;;;;5091437;28;20020;-67
2023/01/06 03:53:16;;;;;;;2.75;1.38;;;9.40;99.90;;;;;;5090400;28;20065;-67
2023/01/06 03:55:49;;;;;;;2.20;1.33;;;9.30;99.90;;;;;;5091388;28;20028;-67
2023/01/06 03:58:17;;;;;;;3.30;1.50;;;9.20;99.90;;;;;;5078322;28;20021;-67
2023/01/06 04:00:42;;;;;;;1.15;1.00;;;9.10;99.90;;;;;;5065130;28;20048;-67
2023/01/06 04:03:12;;;;;;;2.72;1.15;;;9.10;99.90;;;;;;5049979;28;20040;-67
2023/01/06 04:05:38;;;;;;;0.93;0.73;;;9.10;99.90;;;;;;5051119;28;20032;-67
2023/01/06 04:08:04;;;;;;;2.22;0.70;;;9.10;99.90;;;;;;5049699;28;20104;-67
2023/01/06 04:10:29;;;;;;;1.27;0.80;;;9.10;99.90;;;;;;5051442;28;20347;-66
2023/01/06 04:12:55;;;;;;;3.15;0.80;;;9.00;99.90;;;;;;5049835;28;20028;-67
2023/01/06 04:15:23;;;;;;;1.27;0.88;;;8.90;99.90;;;;;;5051162;28;20032;-67
2023/01/06 04:17:49;;;;;;;1.33;1.13;;;8.80;99.90;;;;;;5035551;28;20363;-67
2023/01/06 04:20:19;;;;;;;1.35;0.85;;;8.70;99.90;;;;;;5055023;28;20033;-66
2023/01/06 04:22:45;;;;;;;2.22;1.10;;;8.70;99.90;;;;;;5054254;28;20036;-67
2023/01/06 04:25:11;;;;;;;1.30;0.70;;;8.60;99.90;;;;;;5054240;28;20493;-67
2023/01/06 04:27:37;;;;;;;1.90;0.93;;;8.60;99.90;;;;;;5061668;28;20029;-67
2023/01/06 04:30:04;;;;;;;0.77;0.70;;;8.60;99.90;;;;;;5081838;28;20064;-67
2023/01/06 04:32:30;;;;;;;0.65;0.65;;;8.70;99.90;;;;;;5065454;28;20070;-67
2023/01/06 04:34:55;;;;;;;2.03;0.90;;;8.70;99.90;;;;;;5075446;28;20028;-67
2023/01/06 04:37:21;;;;;;;1.17;0.98;;;8.80;99.90;;;;;;5095252;28;20094;-67
2023/01/06 04:39:47;;;;;;;1.13;0.70;;;8.70;99.90;;;;;;5093969;28;20471;-67
2023/01/06 04:42:12;;;;;;;0.75;0.70;;;8.60;99.90;;;;;;5094889;28;20027;-67
2023/01/06 04:44:38;;;;;;;3.65;0.95;;;8.60;99.90;;;;;;5076236;28;20050;-66
2023/01/06 04:47:03;;;;;;;1.10;0.95;;;8.50;99.90;;;;;;5094112;28;20028;-66
2023/01/06 04:49:29;;;;;;;2.30;0.95;;;8.50;99.90;;;;;;5093872;28;20055;-67
2023/01/06 04:51:54;;;;;;;2.63;1.10;;;8.50;99.90;;;;;;5093883;28;20412;-66
2023/01/06 04:54:20;;;;;;;0.70;0.70;;;8.50;99.90;;;;;;5094191;28;20031;-66
2023/01/06 04:56:46;;;;;;;1.52;1.10;;;8.50;99.90;;;;;;5093961;28;20032;-68
2023/01/06 04:59:11;;;;;;;2.25;1.08;;;8.70;99.90;;;;;;5067050;28;20040;-66
2023/01/06 05:01:37;;;;;;;2.10;1.30;;;8.80;99.90;;;;;;5052653;28;20087;-66
2023/01/06 05:04:06;;;;;;;2.45;1.20;;;8.90;99.90;;;;;;5053185;28;20025;-66
2023/01/06 05:06:32;;;;;;;3.58;2.05;;;8.80;99.90;;;;;;5053835;28;20036;-67
2023/01/06 05:08:57;;;;;;;4.85;2.22;;;8.80;99.90;;;;;;5052807;28;20082;-67
2023/01/06 05:11:24;;;;;;;3.42;2.10;;;8.60;99.90;;;;;;5053974;28;20028;-67
2023/01/06 05:13:50;;;;;;;4.25;2.72;;;8.60;99.90;;;;;;5052399;28;20025;-67
2023/01/06 05:16:22;;;;;;;4.70;2.83;;;8.50;99.90;;;;;;5053852;28;20036;-67
2023/01/06 05:18:48;;;;;;;5.13;2.90;;;8.50;99.90;;;;;;5052963;28;20037;-67
2023/01/06 05:21:13;;;;;;;2.97;2.50;;;8.40;99.90;;;;;;5053957;28;20485;-66
2023/01/06 05:23:39;;;;;;;4.07;2.75;;;8.40;99.90;;;;;;5052640;28;20498;-67
2023/01/06 05:26:06;;;;;;;2.88;2.53;;;8.40;99.90;;;;;;5052524;28;20132;-67
2023/01/06 05:28:32;;;;;;;3.35;2.55;;;8.30;99.90;;;;;;5054006;28;20116;-66
2023/01/06 05:31:03;;;;;;;4.47;2.95;;;8.30;99.90;;;;;;5072715;28;20127;-67
2023/01/06 05:33:29;;;;;;;3.97;2.72;;;8.30;99.90;;;;;;5072931;28;20112;-66
2023/01/06 05:35:59;;;;;;;5.03;2.83;;;8.40;99.90;;;;;;5081921;28;20016;-68
2023/01/06 05:38:25;;;;;;;3.30;2.70;;;8.30;99.90;;;;;;5093177;28;20036;-67
2023/01/06 05:40:52;;;;;;;4.88;2.78;;;8.30;99.90;;;;;;5074460;28;20077;-67
2023/01/06 05:43:19;;;;;;;3.38;2.28;;;8.40;99.90;;;;;;5092926;28;20427;-67
2023/01/06 05:45:44;;;;;;;3.28;2.08;;;8.40;99.90;;;;;;5093177;28;20111;-67
2023/01/06 05:48:10;;;;;;;2.20;1.60;;;8.40;99.90;;;;;;5092809;28;20430;-67
2023/01/06 05:50:35;;;;;;;3.20;1.73;;;8.40;99.90;;;;;;5093511;28;20024;-67
2023/01/06 05:53:01;;;;;;;3.20;1.95;;;8.40;99.90;;;;;;5092180;28;20020;-67
2023/01/06 05:55:26;;;;;;;3.47;1.85;;;8.50;99.90;;;;;;5093031;28;20454;-67
2023/01/06 05:57:52;;;;;;;3.15;2.10;;;8.50;99.90;;;;;;5082904;28;20029;-67
2023/01/06 06:00:18;;;;;;;3.13;1.90;;;8.50;99.90;;;;;;5054877;28;20094;-67
2023/01/06 06:02:43;;;;;;;2.45;1.95;;;8.50;99.90;;;;;;5052880;28;20032;-67
2023/01/06 06:05:09;;;;;;;2.38;1.60;;;8.50;99.90;;;;;;5051874;28;20024;-67
2023/01/06 06:07:35;;;;;;;2.97;1.48;;;8.50;99.90;;;;;;5053098;28;20458;-67
2023/01/06 06:10:01;;;;;;;4.15;1.63;;;8.50;99.90;;;;;;5051736;28;20355;-68
2023/01/06 06:12:26;;;;;;;5.22;2.15;;;8.50;99.90;;;;;;5052803;28;20025;-68
2023/01/06 06:14:52;;;;;;;2.60;1.90;;;8.50;99.90;;;;;;5051212;28;20025;-66
2023/01/06 06:17:18;;;;;;;2.10;1.60;;;8.60;99.90;;;;;;5052695;28;20033;-67
2023/01/06 06:19:43;;;;;;;4.38;1.80;;;8.60;99.90;;;;;;5052037;28;20025;-68
2023/01/06 06:22:09;;;;;;;4.65;2.20;;;8.60;99.90;;;;;;5051777;28;20056;-67
2023/01/06 06:24:34;;;;;;;4.00;1.70;;;8.70;99.90;;;;;;5051450;28;20048;-67
2023/01/06 06:27:00;;;;;;;3.38;1.95;;;8.70;99.90;;;;;;5051684;28;20103;-67
2023/01/06 06:29:25;;;;;;;3.60;1.75;;;8.80;99.90;;;;;;5053232;28;20013;-67
2023/01/06 06:31:51;;;;;;;1.70;1.20;;;8.90;99.90;;;;;;5060964;28;20024;-67
2023/01/06 06:34:17;;;;;;;2.08;1.20;;;8.90;99.90;;;;;;5071614;28;20111;-67
2023/01/06 06:36:42;;;;;;;2.85;1.27;;;8.90;99.90;;;;;;5059360;28;20451;-67
2023/01/06 06:39:08;;;;;;;3.63;1.02;;;9.00;99.90;;;;;;5050778;28;20029;-67
2023/01/06 06:41:34;;;;;;;2.35;1.20;;;9.20;99.90;;;;;;5052150;28;20067;-67
2023/01/06 06:43:59;;;;;;;1.85;1.00;;;9.20;99.90;;;;;;5051099;28;20025;-67
2023/01/06 06:46:25;;;;;;;2.33;1.13;;;9.30;99.90;;;;;;5073456;28;20431;-67
2023/01/06 06:48:50;;;;;;;2.33;1.30;;;9.30;99.90;;;;;;5091129;28;20438;-67
2023/01/06 06:51:18;;;;;;;1.35;1.17;;;9.30;99.90;;;;;;5092414;28;20050;-67
2023/01/06 06:53:45;;;;;;;1.10;0.88;;;9.40;99.90;;;;;;5090988;28;20422;-68
2023/01/06 06:56:12;;;;;;;2.50;1.20;;;9.40;99.90;;;;;;5091713;28;20027;-66
2023/01/06 06:58:37;;;;;;;1.60;1.20;;;9.50;99.90;;;;;;5091451;28;20126;-67
2023/01/06 07:01:08;;;;;;;1.58;0.80;;;9.50;99.90;;;;;;5089242;28;20107;-67
2023/01/06 07:03:34;;;;;;;2.40;0.82;;;9.50;99.90;;;;;;5091743;28;20035;-67
2023/01/06 07:06:02;;;;;;;1.83;1.33;;;9.60;99.90;;;;;;5071999;28;20032;-68
2023/01/06 07:08:27;;;;;;;1.05;0.75;;;9.60;99.90;;;;;;5071335;28;20033;-67
2023/01/06 07:10:53;;;;;;;0.73;0.60;;;9.70;99.90;;;;;;5070998;28;20031;-67
2023/01/06 07:13:19;;;;;;;1.08;0.70;;;9.80;99.90;;;;;;5070757;28;20096;-67
2023/01/06 07:15:44;;;;;;;1.13;0.77;;;9.90;99.90;;;;;;5071316;28;20166;-67
2023/01/06 07:18:10;;;;;;;1.60;0.68;;;9.90;99.90;;;;;;5070762;28;20048;-67
2023/01/06 07:20:37;;;;;;;0.82;0.75;;;9.90;99.90;;;;;;5071525;28;20025;-66
2023/01/06 07:23:03;;;;;;;1.48;1.13;;;9.90;99.90;;;;;;5070008;28;20052;-67
2023/01/06 07:25:30;;;;;;;3.08;1.10;;;10.00;99.90;;;;;;5071560;28;20029;-67
2023/01/06 07:27:57;;;;;;;1.63;0.82;;;9.90;99.90;;;;;;5070082;28;20032;-66
2023/01/06 07:30:25;;;;;;;1.48;0.88;;;9.90;99.90;;;;;;5053459;28;20052;-67
2023/01/06 07:32:51;;;;;;;2.13;0.80;;;9.90;99.90;;;;;;5050284;28;20036;-69
2023/01/06 07:35:17;;;;;;;0.75;0.75;;;9.90;99.90;;;;;;5058804;28;20068;-68
2023/01/06 07:37:43;;;;;;;0.75;0.70;;;9.90;99.90;;;;;;5091526;28;20085;-67
2023/01/06 07:40:09;;;;;;;2.00;0.73;;;9.90;99.90;;;;;;5090581;28;20035;-67
2023/01/06 07:42:35;;;;;;;0.57;0.57;;;9.90;99.90;;;;;;5091623;28;20046;-67
2023/01/06 07:45:01;;;;;;;0.70;0.70;;;10.00;99.90;;;;;;5090153;28;20426;-67
2023/01/06 07:47:26;;;;;;;1.50;1.02;;;10.00;99.90;;;;;;5091770;28;20118;-67
2023/01/06 07:49:52;;;;;;;1.80;0.80;;;10.00;99.90;;;;;;5089962;28;20031;-67
2023/01/06 07:52:18;;;;;;;1.35;0.90;;;10.10;99.90;;;;;;5091478;28;20381;-67
2023/01/06 07:54:43;;;;;;;2.88;1.40;;;10.00;99.90;;;;;;5090851;28;20024;-66
2023/01/06 07:57:09;;;;;;;1.58;1.10;;;10.00;99.90;;;;;;5087716;28;20528;-67
2023/01/06 07:59:34;;;;;;;1.52;1.10;;;9.90;99.90;;;;;;5060765;28;20032;-67
2023/01/06 08:02:00;;;;;;;1.17;1.00;;;9.80;99.90;;;;;;5050142;28;20132;-67
2023/01/06 08:04:25;;;;;;;1.42;1.13;;;9.80;99.90;;;;;;5050508;28;20458;-68
2023/01/06 08:06:51;;;;;;;4.38;1.30;;;9.70;99.90;;;;;;5050350;28;20044;-67
2023/01/06 08:09:17;;;;;;;1.23;1.13;;;9.60;99.90;;;;;;5050588;28;20029;-67
2023/01/06 08:11:42;;;;;;;2.30;1.40;;;9.60;99.90;;;;;;5050899;28;20072;-68
2023/01/06 08:14:09;;;;;;;2.47;1.30;;;9.50;99.90;;;;;;5049627;28;20036;-67
2023/01/06 08:16:37;;;;;;;2.00;1.30;;;9.50;99.90;;;;;;5050791;28;20021;-67
2023/01/06 08:19:03;;;;;;;1.42;1.17;;;9.40;99.90;;;;;;5057860;28;20054;-67
2023/01/06 08:21:29;;;;;;;1.38;1.27;;;9.30;99.90;;;;;;5068985;28;20060;-67
2023/01/06 08:23:54;;;;;;;1.95;1.50;;;9.30;99.90;;;;;;5069313;28;20072;-66
2023/01/06 08:26:20;;;;;;;2.50;1.50;;;9.20;99.90;;;;;;5070494;28;20027;-67
2023/01/06 08:28:46;;;;;;;1.90;1.50;;;9.20;99.90;;;;;;5070085;28;20116;-68
2023/01/06 08:31:17;;;;;;;3.92;1.42;;;9.10;99.90;;;;;;5078633;28;20036;-67
2023/01/06 08:33:43;;;;;;;1.92;1.55;;;9.10;99.90;;;;;;5090847;28;20453;-67
2023/01/06 08:36:11;;;;;;;2.45;1.58;;;9.10;99.90;;;;;;5079127;28;20037;-68
2023/01/06 08:38:37;;;;;;;1.83;1.73;;;9.10;99.90;;;;;;5070157;28;20037;-67
2023/01/06 08:41:03;;;;;;;5.93;4.50;;;9.10;99.90;;;;;;5087299;28;20028;-68
2023/01/06 08:43:30;;;;;;;10.20;6.65;;;9.10;99.90;;;;;;5090762;28;20085;-67
2023/01/06 08:46:04;;;;;;;2.80;2.30;;;9.10;99.90;;;;;;5090321;28;20035;-68
2023/01/06 08:48:31;;;;;;;1.60;1.50;;;9.10;99.90;;;;;;5090643;28;20108;-67
2023/01/06 08:51:05;;;;;;;1.52;1.38;;;9.00;99.90;;;;;;5090450;28;20024;-67
2023/01/06 08:53:31;;;;;;;2.05;1.23;;;9.10;99.90;;;;;;5090651;28;20039;-68
2023/01/06 08:55:57;;;;;;;3.22;1.40;;;9.10;99.90;;;;;;5090271;28;20055;-68
2023/01/06 08:58:23;;;;;;;2.28;1.30;;;9.10;99.90;;;;;;5090033;28;20500;-68
2023/01/06 09:00:49;;;;;;;2.05;1.15;;;9.20;99.90;;;;;;5090538;28;20468;-67
2023/01/06 09:03:15;;;;;;;3.20;1.40;;;9.20;99.90;;;;;;5091947;28;20040;-67
2023/01/06 09:05:41;;;;;;;0.77;0.75;;;9.20;99.90;;;;;;5094296;28;20024;-67
2023/01/06 09:08:06;;;;;;;1.20;1.10;;;9.10;99.90;;;;;;5093242;28;20153;-68
2023/01/06 09:10:32;;;;;;;1.95;1.40;;;9.10;99.90;;;;;;5065573;28;20025;-68
2023/01/06 09:12:57;;;;;;;2.97;1.30;;;9.10;99.90;;;;;;5052854;28;20087;-68
2023/01/06 09:15:23;;;;;;;2.60;1.20;;;9.10;99.90;;;;;;5053630;28;20021;-68
2023/01/06 09:17:49;;;;;;;1.80;1.48;;;9.00;99.90;;;;;;5052636;28;20075;-68
2023/01/06 09:20:14;;;;;;;3.75;1.60;;;9.00;99.90;;;;;;5053857;28;20025;-68
2023/01/06 09:22:40;;;;;;;4.15;1.60;;;9.00;99.90;;;;;;5053414;28;20093;-68
2023/01/06 09:25:06;;;;;;;2.78;1.85;;;9.10;99.90;;;;;;5052509;28;20599;-67
2023/01/06 09:27:32;;;;;;;3.38;2.10;;;9.10;99.90;;;;;;5053822;28;20508;-67
2023/01/06 09:29:57;;;;;;;2.70;1.40;;;9.20;99.90;;;;;;5052619;28;20025;-68
2023/01/06 09:32:23;;;;;;;3.22;1.52;;;9.20;99.90;;;;;;5053424;28;20033;-67
2023/01/06 09:34:48;;;;;;;2.03;1.00;;;9.30;99.90;;;;;;5052379;28;20040;-67
2023/01/06 09:37:14;;;;;;;1.38;1.23;;;9.40;99.90;;;;;;5093482;28;20111;-67
2023/01/06 09:39:40;;;;;;;1.55;1.00;;;9.50;99.90;;;;;;5079766;28;20033;-67
2023/01/06 09:42:33;;;;;;;0.73;0.73;;;9.60;99.90;;;;;;5052700;28;20021;-68
2023/01/06 09:45:10;;;;;;;2.97;1.00;;;9.70;99.90;;;;;;5052237;28;20466;-68
2023/01/06 09:47:43;;;;;;;1.70;0.90;;;9.80;99.90;;;;;;5053035;28;20470;-68
2023/01/06 09:50:36;;;;;;;1.08;0.70;;;9.90;99.90;;;;;;5052128;28;20082;-68
2023/01/06 09:53:33;;;;;;;2.65;0.70;;;10.00;99.90;;;;;;5049312;28;20029;-68
2023/01/06 09:56:01;;;;;;;0.38;0.30;;;10.20;99.90;;;;;;5052437;28;20036;-68
2023/01/06 09:59:04;;;;;;;0.32;0.28;;;10.50;99.90;;;;;;5066284;28;20036;-67
2023/01/06 10:01:37;;;;;;;0.70;0.30;;;10.60;99.90;;;;;;5073126;28;20024;-67
2023/01/06 10:04:02;;;;;;;0.50;0.30;;;10.80;99.90;;;;;;5071740;28;20103;-68
2023/01/06 10:06:40;;;;;;;0.43;0.43;;;10.90;99.90;;;;;;5072957;28;20078;-67
2023/01/06 10:09:29;;;;;;;0.85;0.65;;;11.00;99.90;;;;;;5070115;28;20025;-67
2023/01/06 10:12:16;;;;;;;1.08;0.60;;;11.10;99.90;;;;;;5052191;28;20029;-68
2023/01/06 10:14:56;;;;;;;0.52;0.52;;;11.10;99.90;;;;;;5051916;28;20025;-67
2023/01/06 10:17:28;;;;;;;0.40;0.40;;;11.10;99.90;;;;;;5034331;28;20403;-68
2023/01/06 10:20:05;;;;;;;0.28;0.20;;;11.10;99.90;;;;;;5051529;28;20064;-68
2023/01/06 10:22:46;;;;;;;0.43;0.30;;;11.00;99.90;;;;;;5052477;28;20103;-68
2023/01/06 10:25:19;;;;;;;0.30;0.30;;;10.90;99.90;;;;;;5052529;28;20076;-68
2023/01/06 10:28:00;;;;;;;0.57;0.35;;;10.90;99.90;;;;;;5051999;28;20517;-68
2023/01/06 10:30:36;;;;;;;1.13;0.52;;;10.90;99.90;;;;;;5052190;28;20029;-68
2023/01/06 10:33:03;;;;;;;1.95;0.40;;;11.00;99.90;;;;;;5051263;28;20047;-68
2023/01/06 10:35:31;;;;;;;2.03;0.52;;;11.10;99.90;;;;;;5063657;28;20028;-68
2023/01/06 10:37:57;;;;;;;1.75;0.60;;;11.10;99.90;;;;;;5091064;28;20431;-68
2023/01/06 10:40:25;;;;;;;1.83;0.70;;;11.20;99.90;;;;;;5063052;28;20029;-68
2023/01/06 10:43:05;;;;;;;0.40;0.40;;;11.30;99.90;;;;;;5051064;28;20112;-68
2023/01/06 10:45:41;;;;;;;0.95;0.65;;;11.50;99.90;;;;;;5057175;28;20100;-68
2023/01/06 10:48:11;;;;;;;2.63;0.65;;;11.60;99.90;;;;;;5032047;28;20032;-68
2023/01/06 10:50:37;;;;;;;;;;;11.70;99.90;;;;;;5052783;28;20036;-68
2023/01/06 10:53:03;;;;;;;1.80;0.50;;;11.80;99.90;;;;;;5050833;28;19905;-68
2023/01/06 10:55:41;;;;;;;0.90;0.57;;;11.80;99.90;;;;;;5052131;28;20028;-68
2023/01/06 10:58:18;;;;;;;0.30;0.30;;;11.90;99.90;;;;;;5061173;28;20039;-67
2023/01/06 11:01:17;;;;;;;0.20;0.20;;;11.80;99.90;;;;;;5071929;28;20020;-68
2023/01/06 11:03:44;;;;;;;2.47;0.30;;;11.80;99.90;;;;;;5057054;28;20545;-67
2023/01/06 11:06:14;;;;;;;0.38;0.30;;;11.70;99.90;;;;;;5071160;28;20449;-67
2023/01/06 11:08:40;;;;;;;0.35;0.20;;;11.80;99.90;;;;;;5070763;28;20033;-67
2023/01/06 11:11:24;;;;;;;0.40;0.40;;;11.80;99.90;;;;;;5051744;28;20053;-67
2023/01/06 11:13:59;;;;;;;1.58;0.47;;;11.80;99.90;;;;;;5050481;28;20032;-67
2023/01/06 11:16:29;;;;;;;0.40;0.40;;;11.90;99.90;;;;;;5051419;28;20029;-68
2023/01/06 11:18:59;;;;;;;0.73;0.37;;;11.90;99.90;;;;;;5050136;28;20090;-68
2023/01/06 11:21:43;;;;;;;0.43;0.40;;;11.90;99.90;;;;;;5051709;28;20032;-68
2023/01/06 11:24:23;;;;;;;1.08;0.30;;;11.90;99.90;;;;;;5049805;28;20179;-69
2023/01/06 11:26:56;;;;;;;0.52;0.40;;;12.00;99.90;;;;;;5050035;28;20033;-68
2023/01/06 11:29:27;;;;;;;0.63;0.45;;;12.00;99.90;;;;;;5050709;28;20048;-68
2023/01/06 11:31:54;;;;;;;0.50;0.30;;;12.00;99.90;;;;;;5050142;28;20423;-67
2023/01/06 11:34:25;;;;;;;0.55;0.52;;;12.00;99.90;;;;;;5050885;28;20128;-67
2023/01/06 11:36:51;;;;;;;1.48;0.63;;;12.10;99.90;;;;;;5084158;28;20039;-67
2023/01/06 11:39:33;;;;;;;0.40;0.40;;;12.30;99.90;;;;;;5079442;28;20033;-68
2023/01/06 11:42:09;;;;;;;1.58;0.60;;;12.30;99.90;;;;;;5050230;28;20036;-68
2023/01/06 11:44:38;;;;;;;1.13;0.70;;;12.30;99.90;;;;;;5050882;28;20033;-68
2023/01/06 11:47:21;;;;;;;1.20;0.82;;;12.30;99.90;;;;;;5050349;28;20041;-67
2023/01/06 11:49:54;;;;;;;2.53;0.40;;;12.40;99.90;;;;;;5049838;28;20105;-68
2023/01/06 11:52:25;;;;;;;1.40;0.45;;;12.40;99.90;;;;;;5051059;28;20108;-68
2023/01/06 11:55:08;;;;;;;0.40;0.40;;;12.50;99.90;;;;;;5049891;28;20037;-69
2023/01/06 11:57:39;;;;;;;0.30;0.30;;;12.70;99.90;;;;;;5057151;28;20436;-67
2023/01/06 12:00:15;;;;;;;0.40;0.40;;;;;;;;;;5069831;28;20088;-67
2023/01/06 12:02:55;;;;;;;0.88;0.68;;;;;;;;;;5071143;28;20115;-68
2023/01/06 12:05:35;;;;;;;0.68;0.50;;;;;;;;;;5071168;28;20029;-68
2023/01/06 12:08:01;;;;;;;;;;;;;;;;;;5052253;28;20041;-68
2023/01/06 12:10:30;;;;;;;2.80;0.65;;;;;;;;;;5051038;28;19951;-68
2023/01/06 12:12:56;;;;;;;0.50;0.50;;;;;;;;;;5049624;28;20071;-69
2023/01/06 12:15:26;;;;;;;2.25;0.73;;;;;;;;;;5051128;28;20025;-68
2023/01/06 12:17:55;;;;;;;0.85;0.65;;;;;;;;;;5049775;28;20033;-67
2023/01/06 12:20:26;;;;;;;1.00;0.60;;;;;;;;;;5051015;28;20052;-67
2023/01/06 12:22:58;;;;;;;0.68;0.47;;;;;;;;;;5049350;28;20432;-68
2023/01/06 12:25:29;;;;;;;0.57;0.50;;;;;;;;;;5050838;28;20055;-68
2023/01/06 12:28:03;;;;;;;0.50;0.40;;;;;;;;;;5049131;28;20104;-67
2023/01/06 12:30:29;;;;;;;0.70;0.43;;;;;;;;;;5050693;28;20025;-67
2023/01/06 12:32:58;;;;;;;0.50;0.50;;;;;;;;;;5049694;28;20027;-69
2023/01/06 12:35:26;;;;;;;1.77;0.40;;;;;;;;;;5060562;28;20012;-68
2023/01/06 12:37:57;;;;;;;1.13;0.60;;;;;;;;;;5068711;28;20037;-68
2023/01/06 12:40:30;;;;;;;0.40;0.40;;;;;;;;;;5054271;28;20382;-68
2023/01/06 12:43:03;;;;;;;2.45;0.50;;;;;;;;;;5053427;28;20155;-68
2023/01/06 12:45:47;;;;;;;0.43;0.43;;;;;;;;;;5054774;28;20029;-68
2023/01/06 12:48:39;;;;;;;0.22;0.22;;;;;;;;;;5053801;28;20029;-67
2023/01/06 12:51:13;;;;;;;1.05;0.73;;;;;;;;;;5022777;28;20025;-68
2023/01/06 12:53:43;;;;;;;1.35;0.50;;;;;;;;;;5053979;28;20064;-67
2023/01/06 12:56:21;;;;;;;0.75;0.70;;;;;;;;;;5053536;28;20037;-67
2023/01/06 12:58:47;;;;;;;0.85;0.65;;;;;;;;;;5069412;28;20032;-67
2023/01/06 13:01:32;;;;;;;0.80;0.70;;;;;;;;;;5074530;28;20071;-67
2023/01/06 13:04:18;;;;;;;0.70;0.70;;;;;;;;;;5072812;28;20016;-66
2023/01/06 13:07:07;;;;;;;1.80;0.80;;;;;;;;;;5067411;28;20029;-67
2023/01/06 13:09:36;;;;;;;0.90;0.80;;;;;;;;;;5031368;28;20099;-66
2023/01/06 13:12:09;;;;;;;0.95;0.77;;;;;;;;;;5052744;28;20032;-66
2023/01/06 13:14:53;;;;;;;2.70;1.05;;;;;;;;;;5053210;28;20029;-67
2023/01/06 13:17:23;;;;;;;3.65;0.80;;;;;;;;;;5053731;28;20037;-66
2023/01/06 13:19:50;;;;;;;;;;;;;;;;;;5053227;28;20024;-67
2023/01/06 13:22:19;;;;;;;2.03;0.90;;;;;;;;;;5053969;28;20016;-66
2023/01/06 13:24:45;;;;;;;1.02;0.70;;;;;;;;;;5052704;28;20395;-66
2023/01/06 13:27:19;;;;;;;1.58;0.90;;;;;;;;;;5053305;28;20029;-67